GABS/BKO METAR and TAF weather

Enter ICAO airport designator
Station Type Date Time Source
GABS METAR 2020/07/06 08:00 UTC NOAA

GABS 060800Z 23004KT 9999 FEW020 25/23 Q1015 NOSIG


Station Type Date Time Source
GABS Decoded METAR 2020/07/06 08:00 UTC NOAA

Bamako / Senou, Mali (GABS) 12-32N 007-57W 381M
Jul 06, 2020 - 04:00 AM EDT / 2020.07.06 0800 UTC
Wind: from the SW (230 degrees) at 5 MPH (4 KT):0
Visibility: greater than 7 mile(s):0
Sky conditions: mostly clear
Temperature: 77 F (25 C)
Dew Point: 73 F (23 C)
Relative Humidity: 88%
Pressure (altimeter): 29.97 in. Hg (1015 hPa)
ob: GABS 060800Z 23004KT 9999 FEW020 25/23 Q1015 NOSIG
cycle: 8

Station Type Date Time Source
GABS TAF 2020/07/06 06:15 UTC NOAA

TAF TAF GABS 060500Z 0606/0712 22006KT 9999 SCT020
TEMPO 0616/0622 VRB15G35KT 4000 TSRA SCT010 BKN020 FEW033CB

Example: see airport list